sensor_id;sensor_type;location;lat;lon;timestamp;P1;durP1;ratioP1;P2;durP2;ratioP2
25990;SDS011;13779;-33.886;151.198;2023-09-19T00:02:07;6.68;;;5.28;;
25990;SDS011;13779;-33.886;151.198;2023-09-19T00:04:38;7.38;;;5.35;;
25990;SDS011;13779;-33.886;151.198;2023-09-19T00:07:08;12.47;;;6.13;;
25990;SDS011;13779;-33.886;151.198;2023-09-19T00:09:38;12.40;;;5.77;;
25990;SDS011;13779;-33.886;151.198;2023-09-19T00:12:09;9.73;;;7.25;;
25990;SDS011;13779;-33.886;151.198;2023-09-19T00:14:42;13.05;;;6.72;;
25990;SDS011;13779;-33.886;151.198;2023-09-19T00:17:12;8.13;;;5.82;;
25990;SDS011;13779;-33.886;151.198;2023-09-19T00:19:44;6.57;;;4.65;;
25990;SDS011;13779;-33.886;151.198;2023-09-19T00:22:14;7.13;;;5.03;;
25990;SDS011;13779;-33.886;151.198;2023-09-19T00:24:47;8.05;;;4.88;;
25990;SDS011;13779;-33.886;151.198;2023-09-19T00:27:17;9.48;;;4.88;;
25990;SDS011;13779;-33.886;151.198;2023-09-19T00:29:47;7.38;;;4.97;;
25990;SDS011;13779;-33.886;151.198;2023-09-19T00:32:17;13.60;;;5.32;;
25990;SDS011;13779;-33.886;151.198;2023-09-19T00:34:47;6.05;;;4.88;;
25990;SDS011;13779;-33.886;151.198;2023-09-19T00:37:17;7.38;;;5.15;;
25990;SDS011;13779;-33.886;151.198;2023-09-19T00:39:48;7.77;;;5.13;;
25990;SDS011;13779;-33.886;151.198;2023-09-19T00:42:19;7.28;;;5.20;;
25990;SDS011;13779;-33.886;151.198;2023-09-19T00:44:49;6.40;;;5.05;;
25990;SDS011;13779;-33.886;151.198;2023-09-19T00:49:50;7.68;;;5.00;;
25990;SDS011;13779;-33.886;151.198;2023-09-19T00:52:21;10.32;;;5.35;;
25990;SDS011;13779;-33.886;151.198;2023-09-19T00:54:51;7.35;;;4.80;;
25990;SDS011;13779;-33.886;151.198;2023-09-19T00:57:23;11.60;;;5.45;;
25990;SDS011;13779;-33.886;151.198;2023-09-19T00:59:53;10.18;;;6.40;;
25990;SDS011;13779;-33.886;151.198;2023-09-19T01:02:26;7.05;;;5.50;;
25990;SDS011;13779;-33.886;151.198;2023-09-19T01:07:27;8.20;;;5.30;;
25990;SDS011;13779;-33.886;151.198;2023-09-19T01:09:59;10.07;;;5.22;;
25990;SDS011;13779;-33.886;151.198;2023-09-19T01:15:59;7.20;;;4.60;;
25990;SDS011;13779;-33.886;151.198;2023-09-19T01:18:40;8.35;;;5.45;;
25990;SDS011;13779;-33.886;151.198;2023-09-19T01:29:44;7.13;;;4.82;;
25990;SDS011;13779;-33.886;151.198;2023-09-19T01:32:20;8.68;;;4.95;;
25990;SDS011;13779;-33.886;151.198;2023-09-19T01:34:56;9.45;;;5.10;;
25990;SDS011;13779;-33.886;151.198;2023-09-19T01:37:32;6.88;;;4.80;;
25990;SDS011;13779;-33.886;151.198;2023-09-19T01:40:04;8.15;;;5.15;;
25990;SDS011;13779;-33.886;151.198;2023-09-19T01:43:01;11.65;;;4.93;;
25990;SDS011;13779;-33.886;151.198;2023-09-19T01:45:51;9.68;;;5.75;;
25990;SDS011;13779;-33.886;151.198;2023-09-19T01:51:08;8.05;;;5.03;;
25990;SDS011;13779;-33.886;151.198;2023-09-19T01:53:42;6.82;;;5.15;;
25990;SDS011;13779;-33.886;151.198;2023-09-19T01:56:28;8.53;;;4.97;;
25990;SDS011;13779;-33.886;151.198;2023-09-19T01:59:24;10.77;;;5.53;;
25990;SDS011;13779;-33.886;151.198;2023-09-19T02:01:57;7.72;;;4.90;;
25990;SDS011;13779;-33.886;151.198;2023-09-19T02:04:29;8.07;;;5.25;;
25990;SDS011;13779;-33.886;151.198;2023-09-19T02:07:01;10.90;;;5.45;;
25990;SDS011;13779;-33.886;151.198;2023-09-19T02:09:34;10.30;;;5.20;;
25990;SDS011;13779;-33.886;151.198;2023-09-19T02:12:07;7.93;;;5.45;;
25990;SDS011;13779;-33.886;151.198;2023-09-19T02:14:39;8.50;;;5.00;;
25990;SDS011;13779;-33.886;151.198;2023-09-19T02:17:09;6.20;;;5.03;;
25990;SDS011;13779;-33.886;151.198;2023-09-19T02:19:40;7.22;;;4.88;;
25990;SDS011;13779;-33.886;151.198;2023-09-19T02:22:11;8.00;;;5.50;;
25990;SDS011;13779;-33.886;151.198;2023-09-19T02:24:42;9.02;;;5.55;;
25990;SDS011;13779;-33.886;151.198;2023-09-19T02:27:14;9.07;;;5.88;;
25990;SDS011;13779;-33.886;151.198;2023-09-19T02:29:49;9.48;;;4.95;;
25990;SDS011;13779;-33.886;151.198;2023-09-19T02:32:23;9.30;;;5.90;;
25990;SDS011;13779;-33.886;151.198;2023-09-19T02:34:54;6.93;;;5.72;;
25990;SDS011;13779;-33.886;151.198;2023-09-19T02:37:24;4.88;;;4.35;;
25990;SDS011;13779;-33.886;151.198;2023-09-19T02:42:25;5.63;;;4.85;;
25990;SDS011;13779;-33.886;151.198;2023-09-19T02:44:57;6.53;;;4.97;;
25990;SDS011;13779;-33.886;151.198;2023-09-19T02:47:27;6.13;;;4.53;;
25990;SDS011;13779;-33.886;151.198;2023-09-19T02:49:59;9.23;;;4.97;;
25990;SDS011;13779;-33.886;151.198;2023-09-19T02:52:30;5.05;;;4.25;;
25990;SDS011;13779;-33.886;151.198;2023-09-19T02:55:01;7.95;;;5.88;;
25990;SDS011;13779;-33.886;151.198;2023-09-19T02:57:33;7.40;;;5.10;;
25990;SDS011;13779;-33.886;151.198;2023-09-19T03:02:34;4.97;;;4.47;;
25990;SDS011;13779;-33.886;151.198;2023-09-19T03:05:05;6.13;;;5.28;;
25990;SDS011;13779;-33.886;151.198;2023-09-19T03:07:36;7.07;;;5.05;;
25990;SDS011;13779;-33.886;151.198;2023-09-19T03:10:07;9.57;;;5.30;;
25990;SDS011;13779;-33.886;151.198;2023-09-19T03:12:38;8.30;;;5.15;;
25990;SDS011;13779;-33.886;151.198;2023-09-19T03:15:09;11.75;;;5.22;;
25990;SDS011;13779;-33.886;151.198;2023-09-19T03:20:14;12.65;;;5.30;;
25990;SDS011;13779;-33.886;151.198;2023-09-19T03:22:49;16.92;;;6.80;;
25990;SDS011;13779;-33.886;151.198;2023-09-19T03:25:20;21.58;;;5.60;;
25990;SDS011;13779;-33.886;151.198;2023-09-19T03:27:51;9.55;;;5.15;;
25990;SDS011;13779;-33.886;151.198;2023-09-19T03:32:51;7.45;;;4.80;;
25990;SDS011;13779;-33.886;151.198;2023-09-19T03:35:22;7.13;;;5.07;;
25990;SDS011;13779;-33.886;151.198;2023-09-19T03:37:53;7.97;;;5.28;;
25990;SDS011;13779;-33.886;151.198;2023-09-19T03:40:23;7.40;;;5.43;;
25990;SDS011;13779;-33.886;151.198;2023-09-19T03:42:54;11.48;;;5.07;;
25990;SDS011;13779;-33.886;151.198;2023-09-19T03:45:26;6.03;;;5.43;;
25990;SDS011;13779;-33.886;151.198;2023-09-19T03:47:56;7.90;;;5.20;;
25990;SDS011;13779;-33.886;151.198;2023-09-19T03:50:27;7.30;;;5.05;;
25990;SDS011;13779;-33.886;151.198;2023-09-19T03:52:57;9.63;;;4.88;;
25990;SDS011;13779;-33.886;151.198;2023-09-19T03:55:28;7.30;;;4.55;;
25990;SDS011;13779;-33.886;151.198;2023-09-19T03:57:59;7.20;;;5.22;;
25990;SDS011;13779;-33.886;151.198;2023-09-19T04:05:34;6.72;;;4.93;;
25990;SDS011;13779;-33.886;151.198;2023-09-19T04:08:05;6.63;;;4.95;;
25990;SDS011;13779;-33.886;151.198;2023-09-19T04:10:36;10.15;;;6.22;;
25990;SDS011;13779;-33.886;151.198;2023-09-19T04:15:36;24.38;;;10.57;;
25990;SDS011;13779;-33.886;151.198;2023-09-19T04:18:08;19.77;;;10.85;;
25990;SDS011;13779;-33.886;151.198;2023-09-19T04:23:09;25.38;;;11.32;;
25990;SDS011;13779;-33.886;151.198;2023-09-19T04:25:40;20.73;;;13.35;;
25990;SDS011;13779;-33.886;151.198;2023-09-19T04:28:11;24.60;;;13.27;;
25990;SDS011;13779;-33.886;151.198;2023-09-19T04:30:42;25.60;;;12.18;;
25990;SDS011;13779;-33.886;151.198;2023-09-19T04:33:13;28.67;;;12.55;;
25990;SDS011;13779;-33.886;151.198;2023-09-19T04:38:13;21.83;;;11.75;;
25990;SDS011;13779;-33.886;151.198;2023-09-19T04:40:44;25.85;;;12.98;;
25990;SDS011;13779;-33.886;151.198;2023-09-19T04:43:16;23.45;;;12.30;;
25990;SDS011;13779;-33.886;151.198;2023-09-19T04:45:46;25.38;;;12.55;;
25990;SDS011;13779;-33.886;151.198;2023-09-19T04:48:17;26.02;;;12.98;;
25990;SDS011;13779;-33.886;151.198;2023-09-19T04:50:48;30.63;;;16.08;;
25990;SDS011;13779;-33.886;151.198;2023-09-19T04:53:19;30.27;;;14.95;;
25990;SDS011;13779;-33.886;151.198;2023-09-19T04:55:53;35.40;;;14.43;;
25990;SDS011;13779;-33.886;151.198;2023-09-19T04:58:24;26.00;;;13.45;;
25990;SDS011;13779;-33.886;151.198;2023-09-19T05:00:54;30.80;;;12.63;;
25990;SDS011;13779;-33.886;151.198;2023-09-19T05:03:25;23.00;;;12.40;;
25990;SDS011;13779;-33.886;151.198;2023-09-19T05:08:26;29.65;;;12.77;;
25990;SDS011;13779;-33.886;151.198;2023-09-19T05:10:57;28.50;;;13.68;;
25990;SDS011;13779;-33.886;151.198;2023-09-19T05:13:27;32.67;;;12.65;;
25990;SDS011;13779;-33.886;151.198;2023-09-19T05:16:00;28.05;;;12.13;;
25990;SDS011;13779;-33.886;151.198;2023-09-19T05:18:31;31.13;;;14.18;;
25990;SDS011;13779;-33.886;151.198;2023-09-19T05:21:02;24.95;;;11.50;;
25990;SDS011;13779;-33.886;151.198;2023-09-19T05:23:40;33.80;;;12.27;;
25990;SDS011;13779;-33.886;151.198;2023-09-19T05:26:14;30.35;;;11.85;;
25990;SDS011;13779;-33.886;151.198;2023-09-19T05:28:44;28.52;;;11.35;;
25990;SDS011;13779;-33.886;151.198;2023-09-19T05:31:16;35.25;;;12.57;;
25990;SDS011;13779;-33.886;151.198;2023-09-19T05:33:47;31.15;;;12.32;;
25990;SDS011;13779;-33.886;151.198;2023-09-19T05:38:48;32.42;;;12.38;;
25990;SDS011;13779;-33.886;151.198;2023-09-19T05:41:19;29.45;;;11.77;;
25990;SDS011;13779;-33.886;151.198;2023-09-19T05:43:50;33.60;;;12.02;;
25990;SDS011;13779;-33.886;151.198;2023-09-19T05:46:22;35.45;;;12.23;;
25990;SDS011;13779;-33.886;151.198;2023-09-19T05:48:55;34.58;;;13.85;;
25990;SDS011;13779;-33.886;151.198;2023-09-19T05:51:26;44.80;;;18.25;;
25990;SDS011;13779;-33.886;151.198;2023-09-19T05:53:56;41.55;;;21.48;;
25990;SDS011;13779;-33.886;151.198;2023-09-19T05:56:27;40.40;;;18.47;;
25990;SDS011;13779;-33.886;151.198;2023-09-19T05:58:57;35.03;;;12.65;;
25990;SDS011;13779;-33.886;151.198;2023-09-19T06:01:28;45.08;;;17.42;;
25990;SDS011;13779;-33.886;151.198;2023-09-19T06:04:02;44.95;;;21.02;;
25990;SDS011;13779;-33.886;151.198;2023-09-19T06:06:33;36.63;;;11.23;;
25990;SDS011;13779;-33.886;151.198;2023-09-19T06:09:07;34.25;;;12.02;;
25990;SDS011;13779;-33.886;151.198;2023-09-19T06:11:37;31.00;;;11.65;;
25990;SDS011;13779;-33.886;151.198;2023-09-19T06:14:10;30.08;;;12.73;;
25990;SDS011;13779;-33.886;151.198;2023-09-19T06:16:40;37.42;;;11.95;;
25990;SDS011;13779;-33.886;151.198;2023-09-19T06:21:41;36.15;;;11.82;;
25990;SDS011;13779;-33.886;151.198;2023-09-19T06:24:16;40.50;;;13.80;;
25990;SDS011;13779;-33.886;151.198;2023-09-19T06:26:48;38.53;;;10.65;;
25990;SDS011;13779;-33.886;151.198;2023-09-19T06:29:18;32.90;;;10.27;;
25990;SDS011;13779;-33.886;151.198;2023-09-19T06:31:49;37.85;;;10.98;;
25990;SDS011;13779;-33.886;151.198;2023-09-19T06:34:19;34.97;;;10.20;;
25990;SDS011;13779;-33.886;151.198;2023-09-19T06:36:51;32.63;;;10.20;;
25990;SDS011;13779;-33.886;151.198;2023-09-19T06:39:24;32.83;;;10.88;;
25990;SDS011;13779;-33.886;151.198;2023-09-19T06:41:54;28.75;;;10.02;;
25990;SDS011;13779;-33.886;151.198;2023-09-19T06:44:24;37.08;;;10.38;;
25990;SDS011;13779;-33.886;151.198;2023-09-19T06:46:58;36.40;;;10.95;;
25990;SDS011;13779;-33.886;151.198;2023-09-19T06:49:28;28.98;;;10.60;;
25990;SDS011;13779;-33.886;151.198;2023-09-19T06:51:58;40.37;;;11.00;;
25990;SDS011;13779;-33.886;151.198;2023-09-19T06:54:29;43.80;;;12.80;;
25990;SDS011;13779;-33.886;151.198;2023-09-19T06:57:00;35.97;;;10.70;;
25990;SDS011;13779;-33.886;151.198;2023-09-19T06:59:31;32.95;;;10.35;;
25990;SDS011;13779;-33.886;151.198;2023-09-19T07:02:01;45.35;;;12.20;;
25990;SDS011;13779;-33.886;151.198;2023-09-19T07:04:34;39.70;;;11.38;;
25990;SDS011;13779;-33.886;151.198;2023-09-19T07:07:04;38.67;;;11.82;;
25990;SDS011;13779;-33.886;151.198;2023-09-19T07:09:37;35.95;;;9.95;;
25990;SDS011;13779;-33.886;151.198;2023-09-19T07:12:07;33.05;;;9.98;;
25990;SDS011;13779;-33.886;151.198;2023-09-19T07:14:39;38.63;;;10.32;;
25990;SDS011;13779;-33.886;151.198;2023-09-19T07:17:09;29.55;;;10.68;;
25990;SDS011;13779;-33.886;151.198;2023-09-19T07:19:40;35.72;;;11.10;;
25990;SDS011;13779;-33.886;151.198;2023-09-19T07:22:11;37.22;;;10.88;;
25990;SDS011;13779;-33.886;151.198;2023-09-19T07:24:41;34.53;;;10.80;;
25990;SDS011;13779;-33.886;151.198;2023-09-19T07:27:11;32.00;;;10.00;;
25990;SDS011;13779;-33.886;151.198;2023-09-19T07:29:42;32.65;;;10.55;;
25990;SDS011;13779;-33.886;151.198;2023-09-19T07:32:15;30.45;;;9.38;;
25990;SDS011;13779;-33.886;151.198;2023-09-19T07:34:49;29.25;;;10.40;;
25990;SDS011;13779;-33.886;151.198;2023-09-19T07:37:19;23.27;;;8.33;;
25990;SDS011;13779;-33.886;151.198;2023-09-19T07:39:50;31.98;;;9.82;;
25990;SDS011;13779;-33.886;151.198;2023-09-19T07:42:20;34.83;;;9.43;;
25990;SDS011;13779;-33.886;151.198;2023-09-19T07:47:22;33.60;;;9.93;;
25990;SDS011;13779;-33.886;151.198;2023-09-19T07:49:53;35.13;;;10.15;;
25990;SDS011;13779;-33.886;151.198;2023-09-19T07:52:24;32.28;;;9.95;;
25990;SDS011;13779;-33.886;151.198;2023-09-19T07:54:56;30.40;;;9.15;;
25990;SDS011;13779;-33.886;151.198;2023-09-19T07:57:27;31.27;;;9.85;;
25990;SDS011;13779;-33.886;151.198;2023-09-19T07:59:57;30.55;;;10.57;;
25990;SDS011;13779;-33.886;151.198;2023-09-19T08:02:28;32.33;;;10.55;;
25990;SDS011;13779;-33.886;151.198;2023-09-19T08:04:59;31.85;;;10.25;;
25990;SDS011;13779;-33.886;151.198;2023-09-19T08:07:35;36.53;;;9.48;;
25990;SDS011;13779;-33.886;151.198;2023-09-19T08:10:09;36.30;;;10.70;;
25990;SDS011;13779;-33.886;151.198;2023-09-19T08:12:47;31.90;;;11.15;;
25990;SDS011;13779;-33.886;151.198;2023-09-19T08:15:24;33.58;;;10.48;;
25990;SDS011;13779;-33.886;151.198;2023-09-19T08:17:55;33.78;;;10.10;;
25990;SDS011;13779;-33.886;151.198;2023-09-19T08:20:26;33.05;;;10.80;;
25990;SDS011;13779;-33.886;151.198;2023-09-19T08:22:56;37.72;;;12.05;;
25990;SDS011;13779;-33.886;151.198;2023-09-19T08:25:27;37.78;;;10.80;;
25990;SDS011;13779;-33.886;151.198;2023-09-19T08:27:58;40.03;;;11.60;;
25990;SDS011;13779;-33.886;151.198;2023-09-19T08:30:30;32.03;;;10.93;;
25990;SDS011;13779;-33.886;151.198;2023-09-19T08:33:04;37.35;;;11.68;;
25990;SDS011;13779;-33.886;151.198;2023-09-19T08:35:36;31.25;;;10.30;;
25990;SDS011;13779;-33.886;151.198;2023-09-19T08:38:08;33.33;;;10.18;;
25990;SDS011;13779;-33.886;151.198;2023-09-19T08:40:40;38.17;;;10.95;;
25990;SDS011;13779;-33.886;151.198;2023-09-19T08:43:12;33.60;;;11.23;;
25990;SDS011;13779;-33.886;151.198;2023-09-19T08:51:02;38.13;;;10.95;;
25990;SDS011;13779;-33.886;151.198;2023-09-19T08:53:41;32.90;;;10.65;;
25990;SDS011;13779;-33.886;151.198;2023-09-19T08:56:19;36.65;;;11.27;;
25990;SDS011;13779;-33.886;151.198;2023-09-19T08:58:57;33.45;;;10.75;;
25990;SDS011;13779;-33.886;151.198;2023-09-19T09:01:32;33.90;;;10.52;;
25990;SDS011;13779;-33.886;151.198;2023-09-19T09:04:10;33.35;;;9.85;;
25990;SDS011;13779;-33.886;151.198;2023-09-19T09:06:41;31.27;;;10.27;;
25990;SDS011;13779;-33.886;151.198;2023-09-19T09:09:13;32.58;;;11.05;;
25990;SDS011;13779;-33.886;151.198;2023-09-19T09:11:44;34.45;;;11.45;;
25990;SDS011;13779;-33.886;151.198;2023-09-19T09:14:21;29.55;;;9.77;;
25990;SDS011;13779;-33.886;151.198;2023-09-19T09:17:02;33.50;;;11.77;;
25990;SDS011;13779;-33.886;151.198;2023-09-19T09:22:09;35.47;;;10.52;;
25990;SDS011;13779;-33.886;151.198;2023-09-19T09:24:57;27.60;;;10.60;;
25990;SDS011;13779;-33.886;151.198;2023-09-19T09:27:36;33.08;;;10.60;;
25990;SDS011;13779;-33.886;151.198;2023-09-19T09:30:09;35.15;;;11.02;;
25990;SDS011;13779;-33.886;151.198;2023-09-19T09:33:10;29.35;;;10.18;;
25990;SDS011;13779;-33.886;151.198;2023-09-19T09:38:25;29.00;;;10.98;;
25990;SDS011;13779;-33.886;151.198;2023-09-19T09:41:00;34.97;;;11.32;;
25990;SDS011;13779;-33.886;151.198;2023-09-19T09:43:35;36.05;;;11.38;;
25990;SDS011;13779;-33.886;151.198;2023-09-19T09:46:19;33.83;;;11.18;;
25990;SDS011;13779;-33.886;151.198;2023-09-19T09:51:58;34.72;;;10.82;;
25990;SDS011;13779;-33.886;151.198;2023-09-19T09:54:58;37.28;;;11.68;;
25990;SDS011;13779;-33.886;151.198;2023-09-19T09:57:33;41.97;;;13.30;;
25990;SDS011;13779;-33.886;151.198;2023-09-19T10:00:05;38.28;;;12.23;;
25990;SDS011;13779;-33.886;151.198;2023-09-19T10:02:42;42.78;;;12.82;;
25990;SDS011;13779;-33.886;151.198;2023-09-19T10:05:21;36.33;;;12.02;;
25990;SDS011;13779;-33.886;151.198;2023-09-19T10:07:58;56.55;;;29.73;;
25990;SDS011;13779;-33.886;151.198;2023-09-19T10:10:47;54.95;;;29.08;;
25990;SDS011;13779;-33.886;151.198;2023-09-19T10:13:21;38.55;;;13.23;;
25990;SDS011;13779;-33.886;151.198;2023-09-19T10:15:56;31.73;;;13.00;;
25990;SDS011;13779;-33.886;151.198;2023-09-19T10:18:36;41.05;;;12.90;;
25990;SDS011;13779;-33.886;151.198;2023-09-19T10:21:09;34.05;;;12.48;;
25990;SDS011;13779;-33.886;151.198;2023-09-19T10:23:40;35.42;;;13.18;;
25990;SDS011;13779;-33.886;151.198;2023-09-19T10:26:17;39.55;;;13.45;;
25990;SDS011;13779;-33.886;151.198;2023-09-19T10:28:48;39.42;;;14.02;;
25990;SDS011;13779;-33.886;151.198;2023-09-19T10:31:22;33.88;;;12.90;;
25990;SDS011;13779;-33.886;151.198;2023-09-19T10:33:59;37.03;;;14.18;;
25990;SDS011;13779;-33.886;151.198;2023-09-19T10:39:14;41.83;;;13.88;;
25990;SDS011;13779;-33.886;151.198;2023-09-19T10:41:53;40.22;;;13.52;;
25990;SDS011;13779;-33.886;151.198;2023-09-19T10:44:28;46.78;;;14.80;;
25990;SDS011;13779;-33.886;151.198;2023-09-19T10:47:02;36.60;;;14.05;;
25990;SDS011;13779;-33.886;151.198;2023-09-19T10:49:42;38.15;;;12.88;;
25990;SDS011;13779;-33.886;151.198;2023-09-19T10:52:19;34.72;;;12.88;;
25990;SDS011;13779;-33.886;151.198;2023-09-19T10:54:56;42.35;;;14.57;;
25990;SDS011;13779;-33.886;151.198;2023-09-19T10:57:30;45.92;;;13.77;;
25990;SDS011;13779;-33.886;151.198;2023-09-19T11:00:06;30.98;;;13.98;;
25990;SDS011;13779;-33.886;151.198;2023-09-19T11:03:23;36.38;;;12.63;;
25990;SDS011;13779;-33.886;151.198;2023-09-19T11:06:33;38.95;;;14.35;;
25990;SDS011;13779;-33.886;151.198;2023-09-19T11:08:59;36.20;;;12.77;;
25990;SDS011;13779;-33.886;151.198;2023-09-19T11:11:45;40.47;;;13.35;;
25990;SDS011;13779;-33.886;151.198;2023-09-19T11:30:44;35.25;;;12.82;;
25990;SDS011;13779;-33.886;151.198;2023-09-19T11:33:19;33.88;;;12.48;;
25990;SDS011;13779;-33.886;151.198;2023-09-19T11:36:03;64.68;;;35.70;;
25990;SDS011;13779;-33.886;151.198;2023-09-19T11:39:00;83.90;;;52.50;;
25990;SDS011;13779;-33.886;151.198;2023-09-19T11:41:41;38.73;;;18.33;;
25990;SDS011;13779;-33.886;151.198;2023-09-19T11:49:35;121.65;;;92.50;;
25990;SDS011;13779;-33.886;151.198;2023-09-19T11:52:11;41.55;;;19.45;;
25990;SDS011;13779;-33.886;151.198;2023-09-19T11:54:55;43.53;;;19.92;;
25990;SDS011;13779;-33.886;151.198;2023-09-19T11:57:26;80.90;;;58.92;;
25990;SDS011;13779;-33.886;151.198;2023-09-19T12:00:00;64.15;;;40.05;;
25990;SDS011;13779;-33.886;151.198;2023-09-19T12:02:39;36.60;;;20.02;;
25990;SDS011;13779;-33.886;151.198;2023-09-19T12:05:28;36.42;;;16.52;;
25990;SDS011;13779;-33.886;151.198;2023-09-19T12:08:00;38.92;;;17.70;;
25990;SDS011;13779;-33.886;151.198;2023-09-19T12:10:46;32.25;;;12.82;;
25990;SDS011;13779;-33.886;151.198;2023-09-19T12:13:18;27.58;;;11.65;;
25990;SDS011;13779;-33.886;151.198;2023-09-19T12:15:52;28.17;;;10.05;;
25990;SDS011;13779;-33.886;151.198;2023-09-19T12:18:31;25.67;;;10.15;;
25990;SDS011;13779;-33.886;151.198;2023-09-19T12:21:05;24.50;;;10.05;;
25990;SDS011;13779;-33.886;151.198;2023-09-19T12:23:37;19.58;;;9.32;;
25990;SDS011;13779;-33.886;151.198;2023-09-19T12:26:11;35.70;;;20.20;;
25990;SDS011;13779;-33.886;151.198;2023-09-19T12:28:43;29.33;;;13.07;;
25990;SDS011;13779;-33.886;151.198;2023-09-19T12:31:15;21.83;;;10.57;;
25990;SDS011;13779;-33.886;151.198;2023-09-19T12:33:58;15.40;;;8.82;;
25990;SDS011;13779;-33.886;151.198;2023-09-19T12:36:30;16.47;;;6.90;;
25990;SDS011;13779;-33.886;151.198;2023-09-19T12:39:04;14.48;;;6.60;;
25990;SDS011;13779;-33.886;151.198;2023-09-19T12:41:38;14.73;;;6.22;;
25990;SDS011;13779;-33.886;151.198;2023-09-19T12:44:12;10.52;;;6.00;;
25990;SDS011;13779;-33.886;151.198;2023-09-19T12:46:44;9.55;;;5.63;;
25990;SDS011;13779;-33.886;151.198;2023-09-19T12:49:19;7.50;;;5.20;;
25990;SDS011;13779;-33.886;151.198;2023-09-19T12:51:53;22.88;;;15.18;;
25990;SDS011;13779;-33.886;151.198;2023-09-19T12:54:38;9.00;;;7.28;;
25990;SDS011;13779;-33.886;151.198;2023-09-19T12:57:26;13.48;;;7.13;;
25990;SDS011;13779;-33.886;151.198;2023-09-19T12:59:58;9.82;;;6.05;;
25990;SDS011;13779;-33.886;151.198;2023-09-19T13:02:29;8.93;;;5.72;;
25990;SDS011;13779;-33.886;151.198;2023-09-19T13:05:04;12.43;;;5.38;;
25990;SDS011;13779;-33.886;151.198;2023-09-19T13:07:43;9.07;;;5.47;;
25990;SDS011;13779;-33.886;151.198;2023-09-19T13:10:27;9.02;;;5.85;;
25990;SDS011;13779;-33.886;151.198;2023-09-19T13:12:58;16.13;;;6.30;;
25990;SDS011;13779;-33.886;151.198;2023-09-19T13:15:56;12.73;;;6.18;;
25990;SDS011;13779;-33.886;151.198;2023-09-19T13:18:28;11.63;;;5.55;;
25990;SDS011;13779;-33.886;151.198;2023-09-19T13:21:06;11.90;;;7.35;;
25990;SDS011;13779;-33.886;151.198;2023-09-19T13:23:43;17.45;;;6.97;;
25990;SDS011;13779;-33.886;151.198;2023-09-19T13:26:15;20.80;;;14.65;;
25990;SDS011;13779;-33.886;151.198;2023-09-19T13:28:46;79.30;;;65.45;;
25990;SDS011;13779;-33.886;151.198;2023-09-19T13:31:21;29.40;;;20.70;;
25990;SDS011;13779;-33.886;151.198;2023-09-19T13:33:58;12.68;;;7.88;;
25990;SDS011;13779;-33.886;151.198;2023-09-19T13:36:30;16.58;;;7.15;;
25990;SDS011;13779;-33.886;151.198;2023-09-19T13:41:32;16.17;;;12.25;;
25990;SDS011;13779;-33.886;151.198;2023-09-19T13:44:05;12.27;;;8.15;;
25990;SDS011;13779;-33.886;151.198;2023-09-19T13:46:37;20.00;;;7.20;;
25990;SDS011;13779;-33.886;151.198;2023-09-19T13:49:12;19.20;;;5.85;;
25990;SDS011;13779;-33.886;151.198;2023-09-19T13:51:43;8.45;;;5.57;;
25990;SDS011;13779;-33.886;151.198;2023-09-19T13:54:15;8.45;;;5.13;;
25990;SDS011;13779;-33.886;151.198;2023-09-19T13:59:20;12.20;;;4.95;;
25990;SDS011;13779;-33.886;151.198;2023-09-19T14:01:57;8.43;;;5.07;;
25990;SDS011;13779;-33.886;151.198;2023-09-19T14:04:37;7.40;;;5.20;;
25990;SDS011;13779;-33.886;151.198;2023-09-19T14:07:08;7.63;;;4.82;;
25990;SDS011;13779;-33.886;151.198;2023-09-19T14:09:42;7.53;;;5.50;;
25990;SDS011;13779;-33.886;151.198;2023-09-19T14:12:14;8.52;;;6.07;;
25990;SDS011;13779;-33.886;151.198;2023-09-19T14:14:46;7.72;;;5.80;;
25990;SDS011;13779;-33.886;151.198;2023-09-19T14:17:26;8.07;;;4.80;;
25990;SDS011;13779;-33.886;151.198;2023-09-19T14:19:57;4.88;;;4.30;;
25990;SDS011;13779;-33.886;151.198;2023-09-19T14:25:00;8.15;;;4.95;;
25990;SDS011;13779;-33.886;151.198;2023-09-19T14:27:33;6.30;;;4.45;;
25990;SDS011;13779;-33.886;151.198;2023-09-19T14:30:04;7.07;;;4.47;;
25990;SDS011;13779;-33.886;151.198;2023-09-19T14:32:36;6.95;;;4.70;;
25990;SDS011;13779;-33.886;151.198;2023-09-19T14:35:16;5.55;;;4.40;;
25990;SDS011;13779;-33.886;151.198;2023-09-19T14:37:51;7.13;;;4.97;;
25990;SDS011;13779;-33.886;151.198;2023-09-19T14:40:22;4.93;;;4.30;;
25990;SDS011;13779;-33.886;151.198;2023-09-19T14:42:54;7.78;;;4.80;;
25990;SDS011;13779;-33.886;151.198;2023-09-19T14:45:24;8.02;;;4.57;;
25990;SDS011;13779;-33.886;151.198;2023-09-19T14:50:25;8.13;;;4.22;;
25990;SDS011;13779;-33.886;151.198;2023-09-19T14:52:55;9.55;;;5.00;;
25990;SDS011;13779;-33.886;151.198;2023-09-19T14:55:26;5.95;;;4.55;;
25990;SDS011;13779;-33.886;151.198;2023-09-19T14:57:58;9.32;;;4.60;;
25990;SDS011;13779;-33.886;151.198;2023-09-19T15:00:31;6.15;;;4.53;;
25990;SDS011;13779;-33.886;151.198;2023-09-19T15:03:03;8.88;;;4.72;;
25990;SDS011;13779;-33.886;151.198;2023-09-19T15:05:33;5.35;;;4.43;;
25990;SDS011;13779;-33.886;151.198;2023-09-19T15:08:04;9.18;;;4.55;;
25990;SDS011;13779;-33.886;151.198;2023-09-19T15:10:34;8.02;;;4.53;;
25990;SDS011;13779;-33.886;151.198;2023-09-19T15:13:05;6.38;;;4.10;;
25990;SDS011;13779;-33.886;151.198;2023-09-19T15:15:36;5.63;;;4.28;;
25990;SDS011;13779;-33.886;151.198;2023-09-19T15:18:06;7.43;;;5.03;;
25990;SDS011;13779;-33.886;151.198;2023-09-19T15:20:42;10.27;;;4.97;;
25990;SDS011;13779;-33.886;151.198;2023-09-19T15:23:13;5.82;;;4.22;;
25990;SDS011;13779;-33.886;151.198;2023-09-19T15:25:50;5.72;;;4.35;;
25990;SDS011;13779;-33.886;151.198;2023-09-19T15:28:22;9.00;;;4.72;;
25990;SDS011;13779;-33.886;151.198;2023-09-19T15:30:59;7.93;;;4.68;;
25990;SDS011;13779;-33.886;151.198;2023-09-19T15:33:31;6.45;;;4.82;;
25990;SDS011;13779;-33.886;151.198;2023-09-19T15:36:12;6.22;;;5.47;;
25990;SDS011;13779;-33.886;151.198;2023-09-19T15:41:22;8.35;;;5.25;;
25990;SDS011;13779;-33.886;151.198;2023-09-19T15:44:00;7.72;;;4.85;;
25990;SDS011;13779;-33.886;151.198;2023-09-19T15:46:32;8.52;;;4.97;;
25990;SDS011;13779;-33.886;151.198;2023-09-19T15:49:06;7.35;;;5.00;;
25990;SDS011;13779;-33.886;151.198;2023-09-19T15:51:37;7.75;;;5.13;;
25990;SDS011;13779;-33.886;151.198;2023-09-19T15:54:15;9.88;;;6.05;;
25990;SDS011;13779;-33.886;151.198;2023-09-19T15:56:46;5.63;;;5.03;;
25990;SDS011;13779;-33.886;151.198;2023-09-19T15:59:20;10.13;;;5.28;;
25990;SDS011;13779;-33.886;151.198;2023-09-19T16:01:50;9.18;;;4.88;;
25990;SDS011;13779;-33.886;151.198;2023-09-19T16:04:20;8.23;;;5.80;;
25990;SDS011;13779;-33.886;151.198;2023-09-19T16:06:50;6.55;;;5.05;;
25990;SDS011;13779;-33.886;151.198;2023-09-19T16:09:20;9.43;;;5.35;;
25990;SDS011;13779;-33.886;151.198;2023-09-19T16:11:51;7.65;;;4.72;;
25990;SDS011;13779;-33.886;151.198;2023-09-19T16:14:21;8.90;;;5.15;;
25990;SDS011;13779;-33.886;151.198;2023-09-19T16:16:52;7.00;;;5.18;;